Time;durP1;ratioP1;P1;durP2;ratioP2;P2;SDS_P1;SDS_P2;PMS_P1;PMS_P2;Temp;Humidity;BMP_temperature;BMP_pressure;BME280_temperature;BME280_humidity;BME280_pressure;Samples;Min_cycle;Max_cycle;Signal;HPM_P1;HPM_P2
2022/07/24 00:01:47;;;;;;;7.10;2.35;;;19.80;99.90;;;;;;4934130;29;20095;-54
2022/07/24 00:04:14;;;;;;;3.20;2.15;;;19.80;99.90;;;;;;4934149;29;20052;-51
2022/07/24 00:06:41;;;;;;;7.13;3.08;;;19.80;99.90;;;;;;4933198;29;20047;-48
2022/07/24 00:09:08;;;;;;;4.22;1.98;;;19.70;99.90;;;;;;4934317;29;20487;-54
2022/07/24 00:11:35;;;;;;;4.18;2.13;;;19.70;99.90;;;;;;4934029;29;20075;-50
2022/07/24 00:14:02;;;;;;;3.58;2.20;;;19.70;99.90;;;;;;4930556;29;20526;-52
2022/07/24 00:16:29;;;;;;;5.72;2.33;;;19.70;99.90;;;;;;4933888;29;20059;-52
2022/07/24 00:18:56;;;;;;;4.93;2.38;;;19.70;99.90;;;;;;4933521;29;20491;-53
2022/07/24 00:21:23;;;;;;;12.23;2.30;;;19.70;99.90;;;;;;4934093;29;20527;-53
2022/07/24 00:23:50;;;;;;;4.75;2.63;;;19.80;99.90;;;;;;4933714;29;20484;-55
2022/07/24 00:26:17;;;;;;;2.42;2.08;;;19.60;99.90;;;;;;4933397;29;20427;-51
2022/07/24 00:28:43;;;;;;;5.95;2.40;;;19.60;99.90;;;;;;4933507;29;20051;-52
2022/07/24 00:31:10;;;;;;;4.97;2.28;;;19.70;99.90;;;;;;4932766;29;20066;-53
2022/07/24 00:33:37;;;;;;;5.20;2.50;;;19.60;99.90;;;;;;4933745;29;20052;-54
2022/07/24 00:36:04;;;;;;;5.68;2.45;;;19.60;99.90;;;;;;4933663;29;20138;-54
2022/07/24 00:38:31;;;;;;;7.15;2.95;;;19.60;99.90;;;;;;4934126;29;20134;-49
2022/07/24 00:40:57;;;;;;;6.18;2.22;;;19.50;99.90;;;;;;4933628;29;20044;-50
2022/07/24 00:43:24;;;;;;;4.90;2.28;;;19.50;99.90;;;;;;4933604;29;20090;-50
2022/07/24 00:45:51;;;;;;;6.95;2.40;;;19.40;99.90;;;;;;4933416;29;20111;-55
2022/07/24 00:48:18;;;;;;;4.47;2.08;;;19.40;99.90;;;;;;4933705;29;20493;-52
2022/07/24 00:50:46;;;;;;;7.18;2.55;;;19.40;99.90;;;;;;4933839;29;20115;-51
2022/07/24 00:53:13;;;;;;;7.07;2.42;;;19.50;99.90;;;;;;4932447;29;20075;-51
2022/07/24 00:55:39;;;;;;;3.53;2.35;;;19.50;99.90;;;;;;4913244;29;20138;-53
2022/07/24 00:58:06;;;;;;;4.07;2.40;;;19.50;99.90;;;;;;4924909;29;20110;-53
2022/07/24 01:00:33;;;;;;;8.20;2.30;;;19.50;99.90;;;;;;4932735;29;20047;-54
2022/07/24 01:03:00;;;;;;;3.20;2.30;;;19.50;99.90;;;;;;4933415;29;20138;-53
2022/07/24 01:05:27;;;;;;;5.50;2.28;;;19.50;99.90;;;;;;4933040;29;20050;-51
2022/07/24 01:07:53;;;;;;;3.70;2.60;;;19.40;99.90;;;;;;4933228;29;20138;-51
2022/07/24 01:10:20;;;;;;;3.88;2.20;;;19.40;99.90;;;;;;4932686;29;20571;-53
2022/07/24 01:12:47;;;;;;;9.70;3.53;;;19.40;99.90;;;;;;4932841;29;20138;-54
2022/07/24 01:15:14;;;;;;;7.15;2.67;;;19.40;99.90;;;;;;4932692;29;20086;-51
2022/07/24 01:17:41;;;;;;;4.68;2.30;;;19.30;99.90;;;;;;4932604;29;20152;-48
2022/07/24 01:20:09;;;;;;;6.13;2.67;;;19.20;99.90;;;;;;4931574;29;20052;-48
2022/07/24 01:22:35;;;;;;;6.00;3.08;;;19.20;99.90;;;;;;4931716;29;20047;-54
2022/07/24 01:25:02;;;;;;;7.47;2.75;;;19.30;99.90;;;;;;4932612;29;20090;-52
2022/07/24 01:27:29;;;;;;;7.25;2.90;;;19.30;99.90;;;;;;4932721;29;20059;-49
2022/07/24 01:29:56;;;;;;;5.22;2.38;;;19.20;99.90;;;;;;4932651;29;20106;-52
2022/07/24 01:32:23;;;;;;;3.55;2.30;;;19.20;99.90;;;;;;4932606;29;20071;-55
2022/07/24 01:34:50;;;;;;;5.82;2.33;;;19.30;99.90;;;;;;4932174;29;20047;-51
2022/07/24 01:37:16;;;;;;;4.13;2.40;;;19.30;99.90;;;;;;4932331;29;20047;-50
2022/07/24 01:39:43;;;;;;;5.80;2.20;;;19.20;99.90;;;;;;4932434;29;20326;-49
2022/07/24 01:42:10;;;;;;;5.18;2.45;;;19.20;99.90;;;;;;4932348;29;20116;-52
2022/07/24 01:44:36;;;;;;;4.70;2.17;;;19.10;99.90;;;;;;4932459;29;20056;-54
2022/07/24 01:47:04;;;;;;;5.85;2.85;;;19.10;99.90;;;;;;4932022;29;20052;-51
2022/07/24 01:49:30;;;;;;;5.72;2.85;;;19.00;99.90;;;;;;4932250;29;20164;-52
2022/07/24 01:51:57;;;;;;;3.55;2.30;;;19.10;99.90;;;;;;4931797;29;20706;-52
2022/07/24 01:54:24;;;;;;;6.97;2.70;;;19.10;99.90;;;;;;4932003;29;20052;-52
2022/07/24 01:56:51;;;;;;;5.25;2.40;;;19.10;99.90;;;;;;4932042;29;20484;-52
2022/07/24 01:59:17;;;;;;;6.13;2.50;;;19.00;99.90;;;;;;4931967;29;20130;-54
2022/07/24 02:01:44;;;;;;;7.70;2.65;;;19.10;99.90;;;;;;4931986;29;20232;-51
2022/07/24 02:04:11;;;;;;;3.00;2.22;;;19.00;99.90;;;;;;4931812;29;20131;-50
2022/07/24 02:06:38;;;;;;;9.15;2.97;;;19.00;99.90;;;;;;4931814;29;20114;-53
2022/07/24 02:09:05;;;;;;;4.30;2.20;;;18.90;99.90;;;;;;4931688;29;20087;-53
2022/07/24 02:11:32;;;;;;;3.70;2.58;;;19.00;99.90;;;;;;4929812;29;20048;-52
2022/07/24 02:14:00;;;;;;;4.88;2.50;;;19.00;99.90;;;;;;4931737;29;20134;-50
2022/07/24 02:16:27;;;;;;;4.13;2.83;;;18.90;99.90;;;;;;4931659;29;20083;-50
2022/07/24 02:18:54;;;;;;;4.93;2.58;;;18.90;99.90;;;;;;4931416;29;20119;-49
2022/07/24 02:21:20;;;;;;;5.32;2.58;;;18.90;99.90;;;;;;4931503;29;20048;-49
2022/07/24 02:23:47;;;;;;;4.97;2.55;;;18.80;99.90;;;;;;4931528;29;20052;-51
2022/07/24 02:26:14;;;;;;;12.48;3.50;;;18.80;99.90;;;;;;4931642;29;20420;-52
2022/07/24 02:28:41;;;;;;;10.02;2.72;;;18.80;99.90;;;;;;4931283;29;20143;-52
2022/07/24 02:31:08;;;;;;;4.13;2.65;;;18.70;99.90;;;;;;4931383;29;20126;-52
2022/07/24 02:33:34;;;;;;;6.20;2.60;;;18.80;99.90;;;;;;4931111;29;20048;-52
2022/07/24 02:36:01;;;;;;;7.40;2.75;;;18.70;99.90;;;;;;4931849;29;20468;-52
2022/07/24 02:38:28;;;;;;;4.88;2.70;;;18.80;99.90;;;;;;4930922;29;20090;-53
2022/07/24 02:40:55;;;;;;;6.80;2.75;;;18.80;99.90;;;;;;4930996;29;20052;-55
2022/07/24 02:43:21;;;;;;;7.43;2.70;;;18.80;99.90;;;;;;4930999;29;20138;-53
2022/07/24 02:45:48;;;;;;;8.50;2.78;;;18.80;99.90;;;;;;4929663;29;20134;-53
2022/07/24 02:48:19;;;;;;;9.27;3.13;;;18.80;99.90;;;;;;4930937;29;20079;-50
2022/07/24 02:50:46;;;;;;;7.15;2.78;;;18.80;99.90;;;;;;4930694;29;20040;-53
2022/07/24 02:53:12;;;;;;;6.07;2.67;;;18.70;99.90;;;;;;4931210;29;20080;-51
2022/07/24 02:55:39;;;;;;;5.13;2.60;;;18.80;99.90;;;;;;4931046;29;20083;-50
2022/07/24 02:58:06;;;;;;;7.70;2.92;;;18.70;99.90;;;;;;4930845;29;20562;-53
2022/07/24 03:00:33;;;;;;;4.38;3.03;;;18.60;99.90;;;;;;4931245;29;20131;-53
2022/07/24 03:03:00;;;;;;;7.50;2.75;;;18.60;99.90;;;;;;4931386;29;20130;-53
2022/07/24 03:05:26;;;;;;;5.50;2.78;;;18.60;99.90;;;;;;4931013;29;20504;-51
2022/07/24 03:07:53;;;;;;;5.57;2.60;;;18.60;99.90;;;;;;4931089;29;20048;-52
2022/07/24 03:10:20;;;;;;;7.45;2.85;;;18.60;99.90;;;;;;4922251;29;20079;-50
2022/07/24 03:12:47;;;;;;;6.40;2.35;;;18.50;99.90;;;;;;4930809;29;20154;-52
2022/07/24 03:15:14;;;;;;;6.75;2.58;;;18.60;99.90;;;;;;4930739;29;20082;-50
2022/07/24 03:17:48;;;;;;;4.22;2.60;;;18.50;99.90;;;;;;4930721;29;20083;-53
2022/07/24 03:20:15;;;;;;;4.40;2.55;;;18.60;99.90;;;;;;4927502;29;20052;-54
2022/07/24 03:22:42;;;;;;;3.10;2.08;;;18.60;99.90;;;;;;4933573;29;20127;-53
2022/07/24 03:25:09;;;;;;;5.88;2.95;;;18.50;99.90;;;;;;4934632;29;20475;-54
2022/07/24 03:27:36;;;;;;;5.07;2.35;;;18.50;99.90;;;;;;4934832;29;20043;-53
2022/07/24 03:30:04;;;;;;;5.63;2.30;;;18.50;99.90;;;;;;4934383;29;20087;-55
2022/07/24 03:32:31;;;;;;;4.97;2.80;;;18.60;99.90;;;;;;4934600;29;20047;-50
2022/07/24 03:34:58;;;;;;;3.55;2.33;;;18.70;99.90;;;;;;4934232;29;20132;-55
2022/07/24 03:37:24;;;;;;;7.10;2.72;;;18.60;99.90;;;;;;4935020;29;20079;-54
2022/07/24 03:39:51;;;;;;;5.35;2.45;;;18.70;99.90;;;;;;4934429;29;20115;-50
2022/07/24 03:42:18;;;;;;;5.95;2.50;;;18.70;99.90;;;;;;4934395;29;20094;-52
2022/07/24 03:44:45;;;;;;;11.60;2.85;;;18.70;99.90;;;;;;4933079;29;20139;-53
2022/07/24 03:47:11;;;;;;;6.95;2.88;;;18.70;99.90;;;;;;4934063;29;20048;-53
2022/07/24 03:49:38;;;;;;;9.20;3.00;;;18.70;99.90;;;;;;4932696;29;20076;-54
2022/07/24 03:52:05;;;;;;;8.25;2.78;;;18.60;99.90;;;;;;4934040;29;20051;-53
2022/07/24 03:54:32;;;;;;;4.07;2.35;;;18.60;99.90;;;;;;4933842;29;20128;-49
2022/07/24 03:56:58;;;;;;;6.30;3.13;;;18.60;99.90;;;;;;4933844;29;20055;-55
2022/07/24 03:59:25;;;;;;;10.88;3.60;;;18.60;99.90;;;;;;4932645;29;20180;-53
2022/07/24 04:01:52;;;;;;;5.00;2.30;;;18.60;99.90;;;;;;4933912;29;20119;-53
2022/07/24 04:04:19;;;;;;;5.18;2.38;;;18.60;99.90;;;;;;4931551;29;20075;-53
2022/07/24 04:06:46;;;;;;;10.32;2.58;;;18.60;99.90;;;;;;4933604;29;20083;-51
2022/07/24 04:09:13;;;;;;;10.27;2.83;;;18.60;99.90;;;;;;4933349;29;20113;-52
2022/07/24 04:11:39;;;;;;;5.43;2.80;;;18.50;99.90;;;;;;4933181;29;20079;-52
2022/07/24 04:14:06;;;;;;;5.43;2.60;;;18.50;99.90;;;;;;4933772;29;20510;-54
2022/07/24 04:16:33;;;;;;;6.10;2.53;;;18.50;99.90;;;;;;4933350;29;20102;-54
2022/07/24 04:19:00;;;;;;;4.65;2.08;;;18.50;99.90;;;;;;4933955;29;20043;-55
2022/07/24 04:21:32;;;;;;;5.50;2.00;;;18.50;99.90;;;;;;4933421;29;20043;-55
2022/07/24 04:23:59;;;;;;;5.53;2.13;;;18.50;99.90;;;;;;4933716;29;20083;-48
2022/07/24 04:26:26;;;;;;;3.72;2.30;;;18.50;99.90;;;;;;4933577;29;20127;-54
2022/07/24 04:28:53;;;;;;;4.05;2.50;;;18.50;99.90;;;;;;4933462;29;20056;-53
2022/07/24 04:31:20;;;;;;;2.47;1.85;;;18.50;99.90;;;;;;4933575;29;20114;-52
2022/07/24 04:33:47;;;;;;;4.30;2.47;;;18.50;99.90;;;;;;4932930;29;20094;-47
2022/07/24 04:36:13;;;;;;;4.78;2.50;;;18.50;99.90;;;;;;4922882;29;20048;-52
2022/07/24 04:38:40;;;;;;;4.25;2.00;;;18.50;99.90;;;;;;4928671;29;20092;-51
2022/07/24 04:41:07;;;;;;;4.72;1.95;;;18.50;99.90;;;;;;4931023;29;20094;-50
2022/07/24 04:43:34;;;;;;;5.22;2.20;;;18.50;99.90;;;;;;4933488;29;20075;-51
2022/07/24 04:46:00;;;;;;;7.28;1.80;;;18.50;99.90;;;;;;4932233;29;20079;-54
2022/07/24 04:48:27;;;;;;;5.53;1.83;;;18.50;99.90;;;;;;4933184;29;20128;-51
2022/07/24 04:50:54;;;;;;;4.55;2.75;;;18.50;99.90;;;;;;4933588;29;20087;-53
2022/07/24 04:53:23;;;;;;;6.70;2.55;;;18.50;99.90;;;;;;4929747;29;20044;-51
2022/07/24 04:55:49;;;;;;;3.58;2.40;;;18.50;99.90;;;;;;4933111;29;20091;-52
2022/07/24 04:58:16;;;;;;;8.82;2.85;;;18.50;99.90;;;;;;4932790;29;20075;-52
2022/07/24 05:00:43;;;;;;;6.35;2.60;;;18.50;99.90;;;;;;4933327;29;20110;-49
2022/07/24 05:03:10;;;;;;;7.60;3.22;;;18.50;99.90;;;;;;4932672;29;20138;-50
2022/07/24 05:05:37;;;;;;;7.68;3.20;;;18.50;99.90;;;;;;4933037;29;20130;-53
2022/07/24 05:08:04;;;;;;;5.80;2.30;;;18.50;99.90;;;;;;4933100;29;20052;-55
2022/07/24 05:10:30;;;;;;;13.48;3.90;;;18.50;99.90;;;;;;4932846;29;20590;-52
2022/07/24 05:12:57;;;;;;;7.78;2.17;;;18.50;99.90;;;;;;4932634;29;20547;-51
2022/07/24 05:15:29;;;;;;;9.88;2.20;;;18.50;99.90;;;;;;4932724;29;20396;-55
2022/07/24 05:17:56;;;;;;;7.53;2.90;;;18.50;99.90;;;;;;4932708;29;20463;-52
2022/07/24 05:20:22;;;;;;;3.58;2.10;;;18.50;99.90;;;;;;4932489;29;20098;-51
2022/07/24 05:22:49;;;;;;;5.22;2.05;;;18.50;99.90;;;;;;4932468;29;20040;-55
2022/07/24 05:25:16;;;;;;;5.50;2.40;;;18.50;99.90;;;;;;4932540;29;20094;-51
2022/07/24 05:27:43;;;;;;;9.10;3.70;;;18.50;99.90;;;;;;4932435;29;20073;-54
2022/07/24 05:30:10;;;;;;;3.47;2.33;;;18.50;99.90;;;;;;4932622;29;20048;-52
2022/07/24 05:32:37;;;;;;;6.63;2.35;;;18.50;99.90;;;;;;4932438;29;20705;-52
2022/07/24 05:35:04;;;;;;;6.70;2.63;;;18.50;99.90;;;;;;4932465;29;20130;-53
2022/07/24 05:37:31;;;;;;;6.18;2.35;;;18.50;99.90;;;;;;4932628;29;20139;-55
2022/07/24 05:39:58;;;;;;;5.63;2.72;;;18.60;99.90;;;;;;4932331;29;20098;-55
2022/07/24 05:42:25;;;;;;;5.05;2.97;;;18.60;99.90;;;;;;4931241;29;20776;-56
2022/07/24 05:44:52;;;;;;;4.28;2.88;;;18.60;99.90;;;;;;4931266;29;20154;-55
2022/07/24 05:47:19;;;;;;;5.70;2.75;;;18.70;99.90;;;;;;4932037;29;20128;-53
2022/07/24 05:49:46;;;;;;;4.97;2.85;;;18.60;99.90;;;;;;4931773;29;20130;-53
2022/07/24 05:52:12;;;;;;;8.93;3.00;;;18.70;99.90;;;;;;4932515;29;20067;-53
2022/07/24 05:54:39;;;;;;;9.73;2.90;;;18.70;99.90;;;;;;4932098;29;20143;-51
2022/07/24 05:57:06;;;;;;;8.40;3.95;;;18.70;99.90;;;;;;4927510;29;20080;-52
2022/07/24 05:59:33;;;;;;;5.43;3.25;;;18.70;99.90;;;;;;4925532;29;20083;-55
2022/07/24 06:02:03;;;;;;;6.45;2.90;;;18.70;99.90;;;;;;4931649;29;20507;-53
2022/07/24 06:04:30;;;;;;;12.40;4.18;;;18.70;99.90;;;;;;4931696;29;20048;-51
2022/07/24 06:06:57;;;;;;;8.20;3.10;;;18.80;99.90;;;;;;4931956;29;20118;-53
2022/07/24 06:09:24;;;;;;;5.57;3.28;;;18.80;99.90;;;;;;4931517;29;20099;-52
2022/07/24 06:11:51;;;;;;;4.03;2.00;;;18.90;99.90;;;;;;4931573;29;20136;-54
2022/07/24 06:14:18;;;;;;;4.63;2.13;;;18.90;99.90;;;;;;4931507;29;20110;-55
2022/07/24 06:16:45;;;;;;;3.88;1.98;;;19.00;99.90;;;;;;4931390;29;20091;-52
2022/07/24 06:19:11;;;;;;;4.70;2.20;;;19.00;99.90;;;;;;4931525;29;20044;-49
2022/07/24 06:21:38;;;;;;;4.68;1.80;;;19.10;99.90;;;;;;4931387;29;20086;-51
2022/07/24 06:24:05;;;;;;;5.15;1.85;;;19.20;99.90;;;;;;4931422;29;20503;-48
2022/07/24 06:26:32;;;;;;;4.78;2.13;;;19.20;99.90;;;;;;4931319;29;20143;-50
2022/07/24 06:29:19;;;;;;;7.95;2.55;;;19.20;99.90;;;;;;4931582;29;20055;-50
2022/07/24 06:31:45;;;;;;;3.83;2.00;;;19.20;99.90;;;;;;4931296;29;20296;-53
2022/07/24 06:34:12;;;;;;;7.43;2.50;;;19.20;99.90;;;;;;4931347;29;20631;-53
2022/07/24 06:36:39;;;;;;;7.93;3.72;;;19.30;99.90;;;;;;4931110;29;20559;-51
2022/07/24 06:39:06;;;;;;;5.80;2.00;;;19.30;99.90;;;;;;4931303;29;20142;-54
2022/07/24 06:41:33;;;;;;;4.60;2.10;;;19.40;99.90;;;;;;4931101;29;20095;-54
2022/07/24 06:44:00;;;;;;;3.63;1.80;;;19.40;99.90;;;;;;4931667;29;20039;-52
2022/07/24 06:46:26;;;;;;;3.22;1.65;;;19.40;99.90;;;;;;4931383;29;20135;-51
2022/07/24 06:48:53;;;;;;;3.42;1.80;;;19.40;99.90;;;;;;4927927;29;20204;-53
2022/07/24 06:51:20;;;;;;;1.85;1.60;;;19.50;99.90;;;;;;4931289;29;20052;-52
2022/07/24 06:53:47;;;;;;;4.53;2.40;;;19.50;99.90;;;;;;4929147;29;20056;-54
2022/07/24 06:56:14;;;;;;;2.50;1.50;;;19.50;99.90;;;;;;4930860;29;20047;-54
2022/07/24 06:58:41;;;;;;;3.33;2.08;;;19.60;99.90;;;;;;4929367;29;20724;-52
2022/07/24 07:01:07;;;;;;;3.65;1.50;;;19.70;99.90;;;;;;4930854;29;20496;-52
2022/07/24 07:03:34;;;;;;;3.53;1.50;;;19.80;99.90;;;;;;4930916;29;20160;-55
2022/07/24 07:06:01;;;;;;;5.15;1.42;;;19.80;99.90;;;;;;4931349;29;20122;-53
2022/07/24 07:08:28;;;;;;;4.63;1.90;;;19.80;99.90;;;;;;4930899;29;20079;-52
2022/07/24 07:10:55;;;;;;;4.15;1.52;;;19.90;99.90;;;;;;4930940;29;20089;-52
2022/07/24 07:13:21;;;;;;;6.00;1.63;;;19.90;99.90;;;;;;4931072;29;20174;-51
2022/07/24 07:15:48;;;;;;;3.75;2.10;;;20.00;99.90;;;;;;4930764;29;20146;-53
2022/07/24 07:18:15;;;;;;;5.32;1.50;;;20.00;99.90;;;;;;4930832;29;20052;-52
2022/07/24 07:20:42;;;;;;;5.38;1.63;;;20.00;99.90;;;;;;4930966;29;20052;-53
2022/07/24 07:23:09;;;;;;;2.45;1.38;;;20.10;99.90;;;;;;4930514;29;20039;-50
2022/07/24 07:25:35;;;;;;;3.50;1.90;;;20.10;99.90;;;;;;4929792;29;20109;-56
2022/07/24 07:28:02;;;;;;;4.40;1.42;;;20.20;99.90;;;;;;4930857;29;20059;-54
2022/07/24 07:30:29;;;;;;;5.07;1.60;;;20.30;99.90;;;;;;4930822;29;20139;-51
2022/07/24 07:32:56;;;;;;;4.65;1.60;;;20.30;99.90;;;;;;4930744;29;20051;-54
2022/07/24 07:35:23;;;;;;;2.95;1.70;;;20.30;99.90;;;;;;4930752;29;20083;-53
2022/07/24 07:37:53;;;;;;;6.50;1.67;;;20.40;99.90;;;;;;4930628;29;20185;-53
2022/07/24 07:40:20;;;;;;;4.32;1.70;;;20.50;99.90;;;;;;4930901;29;20159;-54
2022/07/24 07:42:47;;;;;;;1.70;1.60;;;20.50;99.90;;;;;;4930506;29;20135;-59
2022/07/24 07:45:14;;;;;;;3.45;2.60;;;20.60;99.90;;;;;;4930412;29;20051;-53
2022/07/24 07:47:41;;;;;;;2.28;1.40;;;20.70;99.90;;;;;;4930388;29;20055;-50
2022/07/24 07:50:08;;;;;;;3.60;1.50;;;20.70;99.90;;;;;;4930406;29;20083;-50
2022/07/24 07:52:35;;;;;;;2.67;1.60;;;20.80;99.90;;;;;;4930258;29;20048;-49
2022/07/24 07:55:02;;;;;;;4.05;1.35;;;20.80;99.90;;;;;;4930571;29;20142;-48
2022/07/24 07:57:29;;;;;;;1.90;1.67;;;20.90;99.90;;;;;;4930933;29;20287;-54
2022/07/24 08:00:17;;;;;;;3.20;1.73;;;21.00;99.90;;;;;;4923923;29;20051;-51
2022/07/24 08:02:43;;;;;;;5.65;2.30;;;21.00;99.90;;;;;;4930215;29;20502;-54
2022/07/24 08:05:10;;;;;;;4.72;1.90;;;21.10;99.90;;;;;;4920567;29;20086;-52
2022/07/24 08:07:37;;;;;;;6.18;1.77;;;21.20;99.90;;;;;;4930439;29;20050;-53
2022/07/24 08:10:05;;;;;;;3.28;1.73;;;21.30;99.90;;;;;;4932564;29;20198;-52
2022/07/24 08:12:37;;;;;;;6.03;1.83;;;21.30;99.90;;;;;;4933765;29;20484;-52
2022/07/24 08:15:05;;;;;;;2.35;1.63;;;21.30;99.90;;;;;;4930130;29;20082;-55
2022/07/24 08:17:32;;;;;;;4.45;1.60;;;21.30;99.90;;;;;;4933577;29;20051;-53
2022/07/24 08:19:59;;;;;;;3.25;1.65;;;21.40;99.90;;;;;;4933212;29;20138;-53
2022/07/24 08:22:26;;;;;;;4.32;2.03;;;21.40;99.90;;;;;;4933494;29;20076;-52
2022/07/24 08:24:52;;;;;;;2.70;1.70;;;21.50;99.90;;;;;;4933410;29;20991;-49
2022/07/24 08:27:19;;;;;;;2.80;1.77;;;21.50;99.90;;;;;;4933800;29;20051;-52
2022/07/24 08:29:46;;;;;;;3.40;1.52;;;21.60;99.90;;;;;;4932142;29;20131;-52
2022/07/24 08:32:17;;;;;;;3.05;1.95;;;21.60;99.90;;;;;;4933221;29;20155;-53
2022/07/24 08:34:43;;;;;;;3.60;1.50;;;21.80;99.90;;;;;;4933445;29;20082;-59
2022/07/24 08:37:10;;;;;;;5.05;1.77;;;21.80;99.90;;;;;;4933228;29;20083;-54
2022/07/24 08:39:37;;;;;;;3.53;1.60;;;21.90;99.90;;;;;;4933114;29;20051;-54
2022/07/24 08:42:06;;;;;;;5.65;2.13;;;22.10;99.90;;;;;;4932869;29;20518;-53
2022/07/24 08:44:33;;;;;;;2.03;1.50;;;22.20;99.50;;;;;;4923205;29;20068;-53
2022/07/24 08:47:00;;;;;;;2.72;1.55;;;22.30;99.10;;;;;;4932771;29;20094;-51
2022/07/24 08:49:27;;;;;;;2.08;1.30;;;22.30;98.60;;;;;;4931564;29;20055;-53
2022/07/24 08:51:53;;;;;;;2.97;1.60;;;22.40;98.30;;;;;;4932820;29;20211;-50
2022/07/24 08:54:20;;;;;;;3.33;1.77;;;22.50;98.20;;;;;;4915326;29;20213;-51
2022/07/24 08:56:48;;;;;;;2.90;1.48;;;22.60;96.80;;;;;;4932665;29;20325;-51
2022/07/24 08:59:17;;;;;;;2.50;1.35;;;22.70;96.60;;;;;;4932516;29;20480;-50
2022/07/24 09:01:51;;;;;;;5.25;1.92;;;22.80;96.50;;;;;;4931216;29;20130;-52
2022/07/24 09:04:46;;;;;;;2.92;1.60;;;22.80;95.70;;;;;;4932915;29;20048;-51
2022/07/24 09:07:22;;;;;;;5.28;1.80;;;22.80;94.40;;;;;;4923681;29;20146;-53
2022/07/24 09:10:02;;;;;;;2.13;1.77;;;22.90;95.30;;;;;;4932215;29;20217;-53
2022/07/24 09:12:36;;;;;;;2.70;1.40;;;23.00;94.40;;;;;;4924378;29;20349;-50
2022/07/24 09:15:11;;;;;;;2.42;1.80;;;23.10;93.70;;;;;;4931270;29;20173;-53
2022/07/24 09:17:56;;;;;;;5.85;1.50;;;23.20;93.10;;;;;;4924711;29;20190;-53
2022/07/24 09:20:24;;;;;;;2.22;1.48;;;23.30;92.60;;;;;;4932306;29;20142;-54
2022/07/24 09:22:51;;;;;;;7.22;1.90;;;23.30;93.00;;;;;;4932586;29;20051;-54
2022/07/24 09:25:28;;;;;;;3.85;1.98;;;23.50;94.00;;;;;;4932256;29;20373;-55
2022/07/24 09:28:01;;;;;;;3.42;1.83;;;23.60;92.90;;;;;;4922374;29;20044;-54
2022/07/24 09:30:34;;;;;;;8.67;2.33;;;23.70;92.90;;;;;;4932097;29;20131;-58
2022/07/24 09:33:06;;;;;;;2.53;1.50;;;23.80;92.40;;;;;;4932468;29;20134;-53
2022/07/24 09:35:35;;;;;;;2.45;1.60;;;23.90;91.40;;;;;;4932241;29;20047;-53
2022/07/24 09:38:03;;;;;;;2.85;1.80;;;24.00;91.60;;;;;;4931963;29;20130;-53
2022/07/24 09:40:37;;;;;;;3.50;1.85;;;24.10;91.30;;;;;;4931988;29;20146;-52
2022/07/24 09:43:16;;;;;;;3.03;1.92;;;24.20;89.60;;;;;;4929161;29;20448;-53
2022/07/24 09:46:01;;;;;;;2.65;1.90;;;24.20;88.70;;;;;;4931996;29;20044;-52
2022/07/24 09:48:33;;;;;;;5.95;2.08;;;24.20;90.00;;;;;;4931037;29;20048;-52
2022/07/24 09:51:01;;;;;;;2.88;2.00;;;24.30;87.90;;;;;;4931495;29;20086;-53
2022/07/24 09:53:30;;;;;;;4.70;2.50;;;24.30;86.20;;;;;;4931320;29;20131;-55
2022/07/24 09:56:07;;;;;;;4.72;1.73;;;24.40;88.70;;;;;;4931607;29;20158;-52
2022/07/24 09:58:36;;;;;;;3.78;1.55;;;24.60;84.90;;;;;;4928834;29;20344;-51
2022/07/24 10:01:04;;;;;;;5.85;2.40;;;24.70;85.70;;;;;;4930580;29;20147;-52
2022/07/24 10:03:33;;;;;;;5.53;2.10;;;24.80;83.80;;;;;;4930339;29;20491;-53
2022/07/24 10:06:02;;;;;;;4.63;2.28;;;24.80;83.30;;;;;;4931445;29;20078;-51
2022/07/24 10:08:29;;;;;;;6.20;2.00;;;25.00;81.60;;;;;;4931443;29;20075;-53
2022/07/24 10:10:56;;;;;;;3.75;1.65;;;25.30;82.10;;;;;;4931535;29;20153;-53
2022/07/24 10:13:30;;;;;;;3.05;1.80;;;25.70;81.20;;;;;;4930933;29;20455;-52
2022/07/24 10:15:59;;;;;;;;;;;26.00;79.80;;;;;;4931621;29;20090;-53
2022/07/24 10:18:38;;;;;;;6.10;1.73;;;26.30;72.80;;;;;;4930915;29;19923;-49
2022/07/24 10:21:10;;;;;;;3.05;1.52;;;26.60;74.50;;;;;;4927810;29;20098;-57
2022/07/24 10:24:09;;;;;;;2.38;1.67;;;26.80;73.00;;;;;;4929888;29;20051;-54
2022/07/24 10:26:36;;;;;;;3.13;1.80;;;26.90;68.10;;;;;;4912134;29;20456;-57
2022/07/24 10:29:11;;;;;;;1.90;1.50;;;27.00;71.70;;;;;;4930848;29;20078;-54
2022/07/24 10:31:39;;;;;;;4.90;1.90;;;27.10;66.60;;;;;;4930350;29;20158;-56
2022/07/24 10:34:15;;;;;;;3.63;1.80;;;27.30;68.50;;;;;;4931037;29;20127;-53
2022/07/24 10:36:55;;;;;;;3.70;1.60;;;27.20;66.00;;;;;;4929866;29;20079;-53
2022/07/24 10:39:31;;;;;;;3.03;2.28;;;27.20;67.80;;;;;;4913196;29;20075;-52
2022/07/24 10:42:05;;;;;;;5.22;1.75;;;27.40;67.40;;;;;;4929893;29;20047;-55
2022/07/24 10:44:32;;;;;;;5.05;1.83;;;27.50;65.00;;;;;;4930607;29;20325;-55
2022/07/24 10:47:12;;;;;;;3.42;1.90;;;27.50;66.80;;;;;;4929632;29;20114;-56
2022/07/24 10:49:38;;;;;;;4.10;2.10;;;27.50;63.70;;;;;;4930597;29;20595;-55
2022/07/24 10:52:20;;;;;;;3.22;1.80;;;27.50;64.70;;;;;;4931062;29;20047;-53
2022/07/24 10:54:47;;;;;;;6.63;1.92;;;27.50;65.50;;;;;;4930534;29;20104;-55
2022/07/24 10:57:14;;;;;;;7.80;2.00;;;27.50;66.10;;;;;;4929799;29;20075;-55
2022/07/24 10:59:41;;;;;;;5.72;1.90;;;27.20;64.70;;;;;;4910571;29;20099;-53
2022/07/24 11:02:28;;;;;;;6.47;1.88;;;26.90;64.90;;;;;;4930374;29;20051;-54
2022/07/24 11:05:25;;;;;;;3.05;1.58;;;26.60;63.00;;;;;;4930640;29;20082;-55
2022/07/24 11:08:17;;;;;;;6.47;1.80;;;26.30;64.00;;;;;;4931024;29;20130;-53
2022/07/24 11:10:53;;;;;;;2.72;1.80;;;26.20;65.20;;;;;;4930911;29;20431;-54
2022/07/24 11:13:32;;;;;;;5.20;2.00;;;26.30;65.90;;;;;;4930964;29;20074;-55
2022/07/24 11:16:10;;;;;;;8.63;1.80;;;26.30;64.90;;;;;;4929999;29;20460;-56
2022/07/24 11:18:37;;;;;;;4.47;2.13;;;26.20;65.70;;;;;;4930581;29;20086;-52
2022/07/24 11:21:09;;;;;;;4.95;1.85;;;26.10;65.80;;;;;;4928304;29;20059;-51
2022/07/24 11:23:37;;;;;;;4.90;2.22;;;26.00;67.00;;;;;;4930544;29;20043;-56
2022/07/24 11:26:42;;;;;;;5.13;1.95;;;26.00;67.40;;;;;;4930354;29;20048;-54
2022/07/24 11:29:12;;;;;;;2.28;1.25;;;26.10;67.20;;;;;;4916565;29;20052;-54
2022/07/24 11:31:38;;;;;;;4.20;1.65;;;26.20;69.10;;;;;;4926990;29;20075;-53
2022/07/24 11:34:05;;;;;;;10.38;2.15;;;26.40;69.40;;;;;;4929030;29;20044;-56
2022/07/24 11:36:33;;;;;;;6.88;1.90;;;26.40;68.00;;;;;;4928616;29;20071;-50
2022/07/24 11:39:00;;;;;;;2.92;1.95;;;26.50;67.90;;;;;;4930573;29;20578;-55
2022/07/24 11:41:27;;;;;;;3.70;1.90;;;26.40;67.60;;;;;;4912778;29;20496;-53
2022/07/24 11:43:54;;;;;;;5.05;2.00;;;26.20;68.70;;;;;;4933057;29;20130;-53
2022/07/24 11:46:34;;;;;;;6.38;2.13;;;26.30;68.90;;;;;;4933856;29;20394;-54
2022/07/24 11:49:05;;;;;;;3.15;1.60;;;26.40;69.50;;;;;;4931699;29;20139;-53
2022/07/24 11:51:32;;;;;;;3.58;1.70;;;26.50;69.80;;;;;;4932608;29;20091;-53
2022/07/24 11:54:01;;;;;;;3.13;1.85;;;26.50;68.80;;;;;;4917071;29;20086;-54
2022/07/24 11:56:30;;;;;;;4.20;1.80;;;26.60;67.70;;;;;;4932953;29;20502;-51
2022/07/24 11:58:58;;;;;;;8.63;2.25;;;26.50;67.00;;;;;;4933955;29;20047;-55
2022/07/24 12:01:24;;;;;;;3.60;1.85;;;26.60;68.00;;;;;;4933951;29;20147;-56
2022/07/24 12:03:57;;;;;;;4.82;2.15;;;26.60;67.40;;;;;;4933483;29;20124;-54
2022/07/24 12:06:25;;;;;;;3.42;2.33;;;26.50;67.30;;;;;;4933887;29;20043;-53
2022/07/24 12:09:05;;;;;;;3.60;2.38;;;26.70;68.20;;;;;;4933527;29;20048;-56
2022/07/24 12:11:34;;;;;;;3.75;1.63;;;26.90;66.10;;;;;;4923992;29;20134;-54
2022/07/24 12:14:01;;;;;;;3.42;1.80;;;26.90;65.10;;;;;;4932467;29;20119;-56
2022/07/24 12:16:28;;;;;;;4.78;1.85;;;26.80;65.60;;;;;;4932272;29;20054;-56
2022/07/24 12:19:15;;;;;;;2.80;1.50;;;26.80;65.60;;;;;;4933581;29;20054;-52
2022/07/24 12:21:45;;;;;;;2.35;1.75;;;26.70;63.70;;;;;;4933310;29;20142;-56
2022/07/24 12:24:13;;;;;;;2.00;1.80;;;26.70;64.90;;;;;;4933632;29;20332;-54
2022/07/24 12:26:51;;;;;;;7.22;1.70;;;26.70;66.00;;;;;;4932330;29;20056;-54
2022/07/24 12:29:18;;;;;;;3.35;1.60;;;26.60;64.10;;;;;;4933372;29;20139;-53
2022/07/24 12:31:44;;;;;;;3.90;1.75;;;26.60;65.90;;;;;;4931861;29;20103;-53
2022/07/24 12:34:12;;;;;;;6.32;2.58;;;26.60;66.60;;;;;;4933321;29;20051;-51
2022/07/24 12:36:40;;;;;;;3.50;1.92;;;26.70;65.70;;;;;;4932057;29;20048;-55
2022/07/24 12:39:07;;;;;;;2.60;1.63;;;26.70;65.80;;;;;;4933065;29;20130;-55
2022/07/24 12:41:45;;;;;;;4.03;1.33;;;26.80;66.60;;;;;;4933217;29;20103;-50
2022/07/24 12:44:16;;;;;;;5.22;1.30;;;26.80;64.50;;;;;;4930161;29;20043;-55
2022/07/24 12:46:44;;;;;;;2.83;1.58;;;26.70;66.10;;;;;;4931835;29;20114;-50
2022/07/24 12:49:12;;;;;;;4.22;1.40;;;26.80;66.40;;;;;;4931911;29;20427;-52
2022/07/24 12:51:45;;;;;;;2.65;1.55;;;27.00;65.70;;;;;;4932985;29;20484;-54
2022/07/24 12:54:31;;;;;;;4.00;1.35;;;27.10;64.80;;;;;;4931226;29;20052;-54
2022/07/24 12:56:59;;;;;;;7.55;1.63;;;27.20;64.30;;;;;;4932866;29;20052;-55